Time;durP1;ratioP1;P1;durP2;ratioP2;P2;SDS_P1;SDS_P2;PMS_P1;PMS_P2;Temp;Humidity;BMP_temperature;BMP_pressure;BME280_temperature;BME280_humidity;BME280_pressure;Samples;Min_cycle;Max_cycle;Signal;HPM_P1;HPM_P2
2023/12/15 00:01:59;;;;;;;40.10;23.58;;;7.20;99.90;;;;;;4981427;28;20042;-62
2023/12/15 00:04:25;;;;;;;49.72;25.65;;;7.20;99.90;;;;;;4969720;28;20125;-62
2023/12/15 00:06:50;;;;;;;40.88;25.02;;;7.20;99.90;;;;;;4982071;28;20050;-62
2023/12/15 00:09:17;;;;;;;44.30;26.15;;;7.20;99.90;;;;;;4967044;28;20524;-63
2023/12/15 00:11:43;;;;;;;49.13;26.48;;;7.30;99.90;;;;;;4954561;28;20081;-62
2023/12/15 00:14:08;;;;;;;47.90;25.85;;;7.30;99.90;;;;;;4981728;28;20164;-63
2023/12/15 00:16:34;;;;;;;50.80;27.80;;;7.30;99.90;;;;;;4985690;28;20049;-62
2023/12/15 00:19:00;;;;;;;47.83;26.42;;;7.30;99.90;;;;;;4980814;28;20034;-63
2023/12/15 00:21:25;;;;;;;62.03;29.30;;;7.30;99.90;;;;;;4980697;28;20129;-63
2023/12/15 00:23:52;;;;;;;59.75;28.50;;;7.30;99.90;;;;;;4968183;28;20101;-62
2023/12/15 00:26:17;;;;;;;61.88;31.45;;;7.30;99.90;;;;;;4981132;28;20121;-63
2023/12/15 00:28:43;;;;;;;57.10;27.27;;;7.40;99.90;;;;;;4980588;28;20142;-62
2023/12/15 00:31:09;;;;;;;54.72;29.73;;;7.40;99.90;;;;;;4981363;28;20133;-62
2023/12/15 00:33:34;;;;;;;51.17;27.98;;;7.40;99.90;;;;;;4966883;28;20620;-63
2023/12/15 00:36:00;;;;;;;54.95;27.38;;;7.40;99.90;;;;;;4966602;28;20042;-62
2023/12/15 00:38:26;;;;;;;53.70;28.30;;;7.40;99.90;;;;;;4982452;28;20042;-62
2023/12/15 00:40:52;;;;;;;63.83;29.27;;;7.40;99.90;;;;;;4967372;28;20679;-62
2023/12/15 00:43:18;;;;;;;55.65;28.63;;;7.40;99.90;;;;;;4959870;28;20340;-62
2023/12/15 00:45:43;;;;;;;63.63;31.63;;;7.40;99.90;;;;;;4967827;28;20055;-62
2023/12/15 00:48:09;;;;;;;55.60;29.42;;;7.40;99.90;;;;;;4961250;28;20085;-62
2023/12/15 00:50:35;;;;;;;65.18;32.25;;;7.40;99.90;;;;;;4961150;28;20031;-62
2023/12/15 00:53:00;;;;;;;55.20;31.00;;;7.50;99.90;;;;;;4960102;28;20050;-62
2023/12/15 00:55:26;;;;;;;59.55;31.08;;;7.50;99.90;;;;;;4984631;28;20042;-62
2023/12/15 00:57:52;;;;;;;66.47;30.67;;;7.50;99.90;;;;;;4978380;28;20401;-61
2023/12/15 01:00:18;;;;;;;66.03;31.45;;;7.50;99.90;;;;;;4966240;28;20038;-62
2023/12/15 01:02:43;;;;;;;59.10;30.40;;;7.50;99.90;;;;;;4981951;28;20073;-62
2023/12/15 01:05:10;;;;;;;59.25;30.23;;;7.50;99.90;;;;;;4966890;28;20502;-62
2023/12/15 01:07:41;;;;;;;60.42;30.25;;;7.50;99.90;;;;;;4981169;28;20075;-62
2023/12/15 01:10:07;;;;;;;57.38;29.15;;;7.50;99.90;;;;;;4947585;28;20074;-62
2023/12/15 01:12:33;;;;;;;61.40;32.03;;;7.50;99.90;;;;;;4981982;28;20129;-63
2023/12/15 01:14:58;;;;;;;64.97;32.15;;;7.50;99.90;;;;;;4977916;28;20054;-62
2023/12/15 01:17:24;;;;;;;69.10;32.25;;;7.50;99.90;;;;;;4983514;28;20093;-62
2023/12/15 01:19:50;;;;;;;60.30;31.02;;;7.50;99.90;;;;;;4995425;28;20038;-62
2023/12/15 01:22:15;;;;;;;56.55;29.33;;;7.50;99.90;;;;;;4965651;28;20120;-62
2023/12/15 01:24:41;;;;;;;51.50;28.88;;;7.40;99.90;;;;;;4965863;28;20046;-63
2023/12/15 01:27:07;;;;;;;49.22;28.15;;;7.40;99.90;;;;;;4979365;28;20137;-63
2023/12/15 01:29:32;;;;;;;53.25;28.58;;;7.40;99.90;;;;;;4948455;28;20133;-63
2023/12/15 01:31:58;;;;;;;53.58;28.27;;;7.40;99.90;;;;;;4981623;28;20046;-63
2023/12/15 01:34:24;;;;;;;69.38;31.92;;;7.40;99.90;;;;;;4983225;28;20125;-62
2023/12/15 01:36:49;;;;;;;45.35;26.70;;;7.40;99.90;;;;;;4980954;28;20046;-62
2023/12/15 01:39:15;;;;;;;52.83;28.38;;;7.40;99.90;;;;;;4980156;28;20039;-62
2023/12/15 01:41:41;;;;;;;44.75;26.40;;;7.30;99.90;;;;;;4982633;28;20142;-63
2023/12/15 01:44:07;;;;;;;54.83;28.25;;;7.30;99.90;;;;;;4962874;28;20413;-62
2023/12/15 01:46:32;;;;;;;58.60;30.48;;;7.30;99.90;;;;;;4977716;28;20046;-63
2023/12/15 01:48:58;;;;;;;55.78;28.98;;;7.30;99.90;;;;;;4974121;28;20131;-62
2023/12/15 01:51:24;;;;;;;50.45;29.65;;;7.20;99.90;;;;;;4980072;28;20050;-63
2023/12/15 01:53:50;;;;;;;47.80;27.33;;;7.20;99.90;;;;;;4975710;28;20051;-62
2023/12/15 01:56:15;;;;;;;52.17;29.10;;;7.20;99.90;;;;;;4979251;28;20046;-62
2023/12/15 01:58:41;;;;;;;54.97;29.58;;;7.20;99.90;;;;;;4978079;28;20165;-63
2023/12/15 02:01:08;;;;;;;49.42;27.33;;;7.30;99.90;;;;;;4977819;28;20057;-62
2023/12/15 02:03:34;;;;;;;46.00;24.95;;;7.20;99.90;;;;;;4973973;28;20051;-62
2023/12/15 02:06:00;;;;;;;46.25;26.27;;;7.20;99.90;;;;;;4965205;28;20441;-62
2023/12/15 02:08:26;;;;;;;44.75;25.85;;;7.20;99.90;;;;;;4975336;28;20089;-62
2023/12/15 02:10:52;;;;;;;39.45;23.13;;;7.20;99.90;;;;;;4971832;28;20121;-62
2023/12/15 02:13:17;;;;;;;46.25;25.45;;;7.20;99.90;;;;;;4978282;28;20034;-62
2023/12/15 02:15:49;;;;;;;44.03;23.80;;;7.20;99.90;;;;;;4975251;28;20541;-62
2023/12/15 02:18:15;;;;;;;41.85;24.42;;;7.20;99.90;;;;;;4976660;28;20038;-62
2023/12/15 02:20:40;;;;;;;38.92;22.15;;;7.20;99.90;;;;;;4946054;28;20046;-62
2023/12/15 02:23:06;;;;;;;39.80;22.23;;;7.20;99.90;;;;;;4962380;28;20041;-62
2023/12/15 02:25:32;;;;;;;40.97;23.48;;;7.20;99.90;;;;;;4965143;28;20058;-62
2023/12/15 02:27:57;;;;;;;50.78;26.65;;;7.20;99.90;;;;;;4964175;28;20682;-62
2023/12/15 02:30:23;;;;;;;39.15;23.65;;;7.20;99.90;;;;;;4974221;28;20078;-62
2023/12/15 02:32:49;;;;;;;37.83;21.48;;;7.20;99.90;;;;;;4979782;28;20527;-62
2023/12/15 02:35:16;;;;;;;42.25;22.75;;;7.20;99.90;;;;;;4977775;28;20561;-62
2023/12/15 02:37:42;;;;;;;41.10;21.27;;;7.20;99.90;;;;;;4979771;28;20121;-63
2023/12/15 02:40:11;;;;;;;40.70;22.00;;;7.20;99.90;;;;;;4972522;28;20137;-62
2023/12/15 02:42:37;;;;;;;43.58;24.20;;;7.20;99.90;;;;;;4978821;28;20113;-62
2023/12/15 02:45:03;;;;;;;46.25;22.52;;;7.20;99.90;;;;;;4973295;28;20133;-62
2023/12/15 02:47:29;;;;;;;38.80;23.02;;;7.20;99.90;;;;;;4974518;28;20078;-62
2023/12/15 02:49:54;;;;;;;34.22;21.00;;;7.20;99.90;;;;;;4979055;28;20124;-62
2023/12/15 02:52:20;;;;;;;37.72;20.88;;;7.20;99.90;;;;;;4958268;28;20042;-62
2023/12/15 02:54:47;;;;;;;44.28;22.38;;;7.10;99.90;;;;;;4971202;28;20042;-62
2023/12/15 02:57:12;;;;;;;38.88;21.20;;;7.10;99.90;;;;;;4976280;28;20038;-62
2023/12/15 02:59:38;;;;;;;41.20;21.60;;;7.10;99.90;;;;;;4983826;28;20712;-63
2023/12/15 03:02:04;;;;;;;40.67;21.10;;;7.10;99.90;;;;;;4962939;28;20121;-62
2023/12/15 03:04:30;;;;;;;39.17;21.17;;;7.10;99.90;;;;;;4963430;28;20065;-62
2023/12/15 03:06:56;;;;;;;43.20;21.38;;;7.10;99.90;;;;;;4945285;28;20676;-62
2023/12/15 03:09:22;;;;;;;34.90;18.75;;;7.10;99.90;;;;;;4972230;28;20034;-62
2023/12/15 03:11:47;;;;;;;38.65;20.33;;;7.00;99.90;;;;;;4975284;28;20042;-62
2023/12/15 03:14:13;;;;;;;38.25;21.10;;;7.00;99.90;;;;;;4977531;28;20121;-62
2023/12/15 03:16:39;;;;;;;33.65;19.88;;;7.00;99.90;;;;;;4977335;28;20030;-62
2023/12/15 03:19:05;;;;;;;40.80;22.08;;;7.00;99.90;;;;;;4975247;28;20146;-62
2023/12/15 03:21:30;;;;;;;37.85;20.42;;;6.90;99.90;;;;;;4972555;28;20138;-62
2023/12/15 03:23:56;;;;;;;34.80;19.13;;;7.00;99.90;;;;;;4979346;28;20069;-62
2023/12/15 03:26:21;;;;;;;36.33;17.27;;;6.90;99.90;;;;;;4976715;28;20671;-62
2023/12/15 03:28:47;;;;;;;38.78;19.20;;;6.90;99.90;;;;;;4976769;28;20046;-62
2023/12/15 03:31:13;;;;;;;37.35;18.80;;;6.90;99.90;;;;;;4979651;28;20042;-62
2023/12/15 03:33:38;;;;;;;38.95;18.75;;;6.80;99.90;;;;;;4963202;28;20125;-62
2023/12/15 03:36:05;;;;;;;30.73;17.05;;;6.80;99.90;;;;;;4962556;28;20426;-62
2023/12/15 03:38:32;;;;;;;35.95;17.85;;;6.80;99.90;;;;;;4973975;28;20490;-62
2023/12/15 03:40:58;;;;;;;38.55;17.23;;;6.80;99.90;;;;;;4979107;28;20728;-62
2023/12/15 03:43:24;;;;;;;36.17;17.73;;;6.80;99.90;;;;;;4975538;28;20557;-62
2023/12/15 03:45:49;;;;;;;37.65;17.50;;;6.80;99.90;;;;;;4977621;28;20133;-62
2023/12/15 03:48:15;;;;;;;33.38;16.13;;;6.90;99.90;;;;;;4980940;28;20038;-62
2023/12/15 03:50:41;;;;;;;38.38;17.10;;;6.90;99.90;;;;;;4961953;28;20149;-62
2023/12/15 03:53:07;;;;;;;33.05;16.92;;;6.90;99.90;;;;;;4978737;28;20039;-62
2023/12/15 03:55:33;;;;;;;40.92;15.73;;;6.90;99.90;;;;;;4975374;28;20093;-62
2023/12/15 03:57:59;;;;;;;34.03;15.48;;;6.90;99.90;;;;;;4963275;28;20054;-62
2023/12/15 04:00:24;;;;;;;32.92;16.02;;;6.90;99.90;;;;;;4963951;28;20048;-62
2023/12/15 04:02:50;;;;;;;36.40;15.25;;;6.90;99.90;;;;;;4977646;28;20030;-62
2023/12/15 04:05:16;;;;;;;36.05;15.60;;;6.90;99.90;;;;;;4979049;28;20074;-62
2023/12/15 04:07:42;;;;;;;34.92;15.02;;;6.80;99.90;;;;;;4958603;28;20073;-62
2023/12/15 04:10:09;;;;;;;33.40;15.13;;;6.80;99.90;;;;;;4979198;28;20153;-62
2023/12/15 04:12:34;;;;;;;29.40;15.35;;;6.80;99.90;;;;;;4946094;28;20092;-63
2023/12/15 04:15:00;;;;;;;31.45;12.82;;;6.80;99.90;;;;;;4972348;28;20493;-62
2023/12/15 04:17:26;;;;;;;29.70;13.68;;;6.80;99.90;;;;;;4977116;28;20417;-63
2023/12/15 04:19:52;;;;;;;38.05;15.35;;;6.80;99.90;;;;;;4977098;28;20042;-62
2023/12/15 04:22:19;;;;;;;43.08;15.38;;;6.80;99.90;;;;;;4982056;28;20038;-62
2023/12/15 04:24:45;;;;;;;38.45;14.07;;;6.80;99.90;;;;;;4978489;28;20050;-62
2023/12/15 04:27:11;;;;;;;36.63;13.65;;;6.70;99.90;;;;;;4967761;28;20567;-62
2023/12/15 04:29:37;;;;;;;34.05;12.32;;;6.70;99.90;;;;;;4980965;28;20041;-62
2023/12/15 04:32:03;;;;;;;35.05;12.32;;;6.70;99.90;;;;;;4976720;28;20042;-62
2023/12/15 04:34:29;;;;;;;30.42;11.60;;;6.70;99.90;;;;;;4985673;28;20157;-62
2023/12/15 04:36:55;;;;;;;21.42;9.85;;;6.70;99.90;;;;;;4969037;28;20038;-62
2023/12/15 04:39:21;;;;;;;28.90;9.95;;;6.70;99.90;;;;;;4947392;28;20039;-62
2023/12/15 04:41:46;;;;;;;31.60;11.32;;;6.70;99.90;;;;;;4961178;28;20660;-62
2023/12/15 04:44:12;;;;;;;28.83;10.38;;;6.70;99.90;;;;;;4979736;28;20042;-62
2023/12/15 04:46:39;;;;;;;29.20;9.93;;;6.70;99.90;;;;;;4978384;28;20061;-62
2023/12/15 04:49:05;;;;;;;28.65;10.32;;;6.60;99.90;;;;;;4983716;28;20113;-62
2023/12/15 04:51:31;;;;;;;30.25;10.43;;;6.70;99.90;;;;;;4982653;28;20046;-62
2023/12/15 04:53:56;;;;;;;37.85;11.82;;;6.60;99.90;;;;;;4981210;28;20478;-62
2023/12/15 04:56:22;;;;;;;35.17;11.43;;;6.60;99.90;;;;;;4963697;28;20697;-62
2023/12/15 04:58:48;;;;;;;31.73;10.20;;;6.60;99.90;;;;;;4979231;28;20312;-63
2023/12/15 05:01:14;;;;;;;33.80;11.68;;;6.60;99.90;;;;;;4982623;28;20072;-63
2023/12/15 05:03:40;;;;;;;28.33;9.65;;;6.60;99.90;;;;;;4963732;28;20112;-62
2023/12/15 05:06:19;;;;;;;32.78;10.80;;;6.60;99.90;;;;;;4976897;28;20057;-62
2023/12/15 05:08:46;;;;;;;29.55;10.00;;;6.60;99.90;;;;;;4963542;28;20046;-62
2023/12/15 05:11:12;;;;;;;34.67;9.52;;;6.60;99.90;;;;;;4965831;28;20039;-63
2023/12/15 05:13:38;;;;;;;29.15;9.15;;;6.60;99.90;;;;;;4984892;28;20470;-62
2023/12/15 05:16:05;;;;;;;41.10;9.70;;;6.60;99.90;;;;;;4979728;28;20042;-63
2023/12/15 05:18:30;;;;;;;31.13;9.43;;;6.50;99.90;;;;;;4976925;28;20108;-63
2023/12/15 05:20:56;;;;;;;39.35;10.77;;;6.50;99.90;;;;;;4980332;28;20042;-62
2023/12/15 05:23:21;;;;;;;29.92;8.98;;;6.50;99.90;;;;;;4960696;28;20146;-62
2023/12/15 05:25:47;;;;;;;36.38;9.23;;;6.50;99.90;;;;;;4982293;28;20493;-62
2023/12/15 05:28:13;;;;;;;29.00;8.55;;;6.50;99.90;;;;;;4979133;28;20034;-62
2023/12/15 05:30:38;;;;;;;29.52;9.38;;;6.50;99.90;;;;;;4977335;28;20134;-62
2023/12/15 05:33:04;;;;;;;32.95;9.20;;;6.50;99.90;;;;;;4982704;28;20041;-62
2023/12/15 05:35:34;;;;;;;31.63;8.98;;;6.50;99.90;;;;;;4958852;28;20042;-62
2023/12/15 05:38:00;;;;;;;37.47;9.18;;;6.50;99.90;;;;;;4962546;28;20082;-62
2023/12/15 05:40:25;;;;;;;30.40;8.98;;;6.50;99.90;;;;;;4963626;28;20165;-62
2023/12/15 05:42:51;;;;;;;28.63;8.13;;;6.50;99.90;;;;;;4977759;28;20163;-62
2023/12/15 05:45:17;;;;;;;29.15;8.18;;;6.50;99.90;;;;;;4977120;28;20042;-62
2023/12/15 05:47:43;;;;;;;38.88;8.77;;;6.50;99.90;;;;;;4978021;28;20066;-62
2023/12/15 05:50:09;;;;;;;29.13;8.73;;;6.50;99.90;;;;;;4966403;28;20517;-62
2023/12/15 05:52:34;;;;;;;30.90;8.02;;;6.50;99.90;;;;;;4980212;28;20138;-62
2023/12/15 05:55:01;;;;;;;24.42;8.70;;;6.50;99.90;;;;;;4977725;28;20085;-62
2023/12/15 05:57:26;;;;;;;32.53;8.25;;;6.50;99.90;;;;;;4946136;28;20085;-62
2023/12/15 05:59:52;;;;;;;34.45;9.57;;;6.50;99.90;;;;;;4965995;28;20042;-63
2023/12/15 06:02:18;;;;;;;31.98;8.55;;;6.50;99.90;;;;;;4962451;28;20046;-62
2023/12/15 06:04:44;;;;;;;27.73;8.35;;;6.50;99.90;;;;;;4980350;28;20097;-62
2023/12/15 06:07:09;;;;;;;29.52;8.55;;;6.40;99.90;;;;;;4976011;28;20044;-62
2023/12/15 06:09:38;;;;;;;31.45;8.48;;;6.40;99.90;;;;;;4962387;28;20042;-62
2023/12/15 06:12:04;;;;;;;39.40;9.65;;;6.50;99.90;;;;;;4979708;28;20104;-62
2023/12/15 06:14:30;;;;;;;31.65;9.40;;;6.40;99.90;;;;;;4978501;28;20475;-62
2023/12/15 06:16:56;;;;;;;44.35;9.95;;;6.40;99.90;;;;;;4962995;28;20058;-62
2023/12/15 06:19:23;;;;;;;27.13;8.73;;;6.40;99.90;;;;;;4980738;28;20038;-62
2023/12/15 06:21:49;;;;;;;33.13;9.02;;;6.40;99.90;;;;;;4976144;28;20057;-62
2023/12/15 06:24:15;;;;;;;28.05;7.05;;;6.40;99.90;;;;;;4979360;28;20034;-62
2023/12/15 06:26:40;;;;;;;30.10;7.45;;;6.40;99.90;;;;;;4979937;28;20134;-62
2023/12/15 06:29:06;;;;;;;26.98;7.82;;;6.40;99.90;;;;;;4976706;28;20054;-62
2023/12/15 06:31:32;;;;;;;30.33;7.97;;;6.40;99.90;;;;;;4991205;28;20083;-62
2023/12/15 06:33:58;;;;;;;36.33;8.45;;;6.40;99.90;;;;;;4965202;28;20486;-62
2023/12/15 06:36:26;;;;;;;35.70;7.97;;;6.40;99.90;;;;;;4977228;28;20038;-62
2023/12/15 06:38:52;;;;;;;26.20;7.55;;;6.40;99.90;;;;;;4977760;28;20489;-62
2023/12/15 06:41:17;;;;;;;29.58;7.40;;;6.40;99.90;;;;;;4975967;28;20050;-62
2023/12/15 06:43:45;;;;;;;28.65;7.80;;;6.40;99.90;;;;;;4977246;28;20046;-62
2023/12/15 06:46:11;;;;;;;33.28;8.30;;;6.40;99.90;;;;;;4973891;28;20046;-63
2023/12/15 06:48:37;;;;;;;31.13;7.05;;;6.40;99.90;;;;;;4978312;28;20046;-62
2023/12/15 06:51:04;;;;;;;26.05;6.25;;;6.40;99.90;;;;;;4979119;28;20042;-62
2023/12/15 06:53:30;;;;;;;28.77;7.25;;;6.40;99.90;;;;;;4975006;28;20658;-62
2023/12/15 06:55:56;;;;;;;36.50;7.05;;;6.40;99.90;;;;;;4968258;28;20046;-62
2023/12/15 06:58:22;;;;;;;32.05;8.15;;;6.40;99.90;;;;;;4960631;28;20043;-62
2023/12/15 07:00:47;;;;;;;38.20;7.72;;;6.40;99.90;;;;;;4954213;28;20125;-62
2023/12/15 07:03:13;;;;;;;35.20;7.68;;;6.40;99.90;;;;;;4972359;28;20074;-62
2023/12/15 07:05:39;;;;;;;30.55;7.57;;;6.40;99.90;;;;;;4969509;28;20051;-63
2023/12/15 07:08:04;;;;;;;37.28;9.98;;;6.40;99.90;;;;;;4978836;28;20533;-62
2023/12/15 07:10:30;;;;;;;36.47;8.63;;;6.40;99.90;;;;;;4962617;28;20524;-62
2023/12/15 07:12:56;;;;;;;37.55;8.55;;;6.40;99.90;;;;;;4961539;28;20053;-62
2023/12/15 07:15:22;;;;;;;32.75;7.88;;;6.30;99.90;;;;;;4995497;28;20065;-61
2023/12/15 07:17:48;;;;;;;36.78;10.13;;;6.30;99.90;;;;;;4974894;28;20434;-61
2023/12/15 07:20:17;;;;;;;26.38;7.22;;;6.30;99.90;;;;;;4971736;28;20125;-62
2023/12/15 07:22:42;;;;;;;29.73;7.85;;;6.30;99.90;;;;;;4961149;28;20125;-62
2023/12/15 07:25:09;;;;;;;33.88;9.23;;;6.30;99.90;;;;;;4976166;28;20046;-63
2023/12/15 07:27:35;;;;;;;28.75;8.80;;;6.30;99.90;;;;;;4971047;28;20058;-62
2023/12/15 07:30:01;;;;;;;38.50;9.38;;;6.30;99.90;;;;;;4956750;28;20038;-62
2023/12/15 07:32:26;;;;;;;37.80;8.05;;;6.20;99.90;;;;;;4944293;28;20052;-62
2023/12/15 07:34:52;;;;;;;34.92;7.55;;;6.20;99.90;;;;;;4980398;28;20034;-62
2023/12/15 07:37:18;;;;;;;33.78;8.10;;;6.20;99.90;;;;;;4965020;28;20109;-62
2023/12/15 07:39:43;;;;;;;32.42;8.48;;;6.20;99.90;;;;;;4974910;28;20046;-62
2023/12/15 07:42:11;;;;;;;39.05;8.23;;;6.30;99.90;;;;;;4977861;28;20578;-62
2023/12/15 07:44:36;;;;;;;32.10;6.35;;;6.30;99.90;;;;;;4962580;28;20054;-62
2023/12/15 07:47:02;;;;;;;34.22;6.78;;;6.30;99.90;;;;;;4972877;28;20096;-62
2023/12/15 07:49:30;;;;;;;31.15;6.95;;;6.30;99.90;;;;;;4977661;28;20096;-62
2023/12/15 07:51:56;;;;;;;29.85;6.03;;;6.40;99.90;;;;;;4992228;28;20053;-63
2023/12/15 07:54:22;;;;;;;33.33;6.18;;;6.40;99.90;;;;;;4974210;28;20047;-62
2023/12/15 07:56:47;;;;;;;40.08;6.88;;;6.40;99.90;;;;;;4980694;28;20513;-62
2023/12/15 07:59:13;;;;;;;32.85;7.00;;;6.40;99.90;;;;;;4977700;28;20046;-62
2023/12/15 08:01:39;;;;;;;34.28;6.65;;;6.40;99.90;;;;;;4981372;28;20050;-62
2023/12/15 08:04:05;;;;;;;31.45;7.43;;;6.40;99.90;;;;;;4984316;28;20061;-63
2023/12/15 08:06:31;;;;;;;29.38;6.72;;;6.50;99.90;;;;;;4977137;28;20156;-62
2023/12/15 08:08:57;;;;;;;33.58;7.40;;;6.50;99.90;;;;;;4980049;28;20049;-62
2023/12/15 08:11:23;;;;;;;36.78;8.63;;;6.50;99.90;;;;;;4978589;28;20042;-62
2023/12/15 08:13:49;;;;;;;42.72;9.35;;;6.50;99.90;;;;;;4985673;28;20053;-62
2023/12/15 08:16:14;;;;;;;39.35;8.65;;;6.50;99.90;;;;;;4984713;28;20617;-62
2023/12/15 08:18:41;;;;;;;38.05;9.25;;;6.40;99.90;;;;;;4950651;28;20068;-62
2023/12/15 08:21:07;;;;;;;36.88;8.18;;;6.50;99.90;;;;;;4985986;28;20526;-62
2023/12/15 08:23:33;;;;;;;38.35;8.00;;;6.50;99.90;;;;;;4999655;28;20112;-63
2023/12/15 08:25:59;;;;;;;42.75;8.02;;;6.50;99.90;;;;;;4980632;28;20983;-62
2023/12/15 08:28:24;;;;;;;48.40;10.02;;;6.50;99.90;;;;;;4949923;28;20408;-62
2023/12/15 08:30:50;;;;;;;38.05;9.57;;;6.50;99.90;;;;;;4980470;28;20053;-62
2023/12/15 08:33:17;;;;;;;37.60;12.13;;;6.50;99.90;;;;;;4980703;28;20086;-62
2023/12/15 08:35:43;;;;;;;43.80;8.45;;;6.60;99.90;;;;;;4978996;28;20124;-62
2023/12/15 08:38:09;;;;;;;26.85;7.18;;;6.50;99.90;;;;;;4966206;28;20533;-62
2023/12/15 08:40:34;;;;;;;40.75;8.95;;;6.50;99.90;;;;;;4976971;28;20080;-62
2023/12/15 08:43:00;;;;;;;36.35;8.80;;;6.50;99.90;;;;;;4980905;28;20038;-62
2023/12/15 08:45:26;;;;;;;34.08;8.57;;;6.50;99.90;;;;;;4979991;28;20501;-62
2023/12/15 08:47:52;;;;;;;35.15;7.88;;;6.60;99.90;;;;;;4980901;28;20034;-62
2023/12/15 08:50:17;;;;;;;39.45;9.73;;;6.60;99.90;;;;;;4982179;28;20038;-62
2023/12/15 08:52:43;;;;;;;30.90;9.00;;;6.60;99.90;;;;;;4981110;28;20134;-62
2023/12/15 08:55:10;;;;;;;31.42;8.80;;;6.60;99.90;;;;;;4980716;28;20046;-63
2023/12/15 08:57:36;;;;;;;31.63;8.00;;;6.60;99.90;;;;;;4982486;28;20852;-62
2023/12/15 09:00:04;;;;;;;39.17;7.75;;;6.70;99.90;;;;;;4977480;28;20591;-62
2023/12/15 09:02:30;;;;;;;33.78;7.82;;;6.70;99.90;;;;;;4966296;28;20053;-62
2023/12/15 09:04:55;;;;;;;34.90;7.85;;;6.80;99.90;;;;;;4981694;28;20038;-62
2023/12/15 09:07:21;;;;;;;33.85;7.28;;;6.80;99.90;;;;;;4978599;28;21054;-62
2023/12/15 09:09:47;;;;;;;41.17;7.97;;;6.90;99.90;;;;;;4981756;28;20120;-62
2023/12/15 09:12:15;;;;;;;48.50;9.23;;;6.90;99.90;;;;;;4985751;28;20182;-62
2023/12/15 09:14:41;;;;;;;33.97;7.88;;;7.00;99.90;;;;;;4980687;28;20081;-62
2023/12/15 09:17:11;;;;;;;42.63;8.30;;;7.00;99.90;;;;;;4983885;28;20074;-62
2023/12/15 09:19:38;;;;;;;41.03;8.00;;;7.10;99.90;;;;;;4964278;28;20043;-62
2023/12/15 09:22:05;;;;;;;37.03;8.02;;;7.10;99.90;;;;;;4966070;28;20060;-62
2023/12/15 09:24:31;;;;;;;37.85;7.53;;;7.20;99.90;;;;;;4980114;28;20100;-62
2023/12/15 09:26:56;;;;;;;44.47;7.80;;;7.20;99.90;;;;;;4977666;28;20046;-63
2023/12/15 09:29:22;;;;;;;36.53;8.38;;;7.30;99.90;;;;;;4983144;28;20132;-62
2023/12/15 09:31:48;;;;;;;42.03;8.35;;;7.40;99.90;;;;;;4979303;28;20043;-62
2023/12/15 09:34:14;;;;;;;32.53;7.22;;;7.40;99.90;;;;;;4960451;28;20046;-62
2023/12/15 09:36:39;;;;;;;39.92;8.55;;;7.50;99.90;;;;;;4983215;28;20045;-62
2023/12/15 09:39:05;;;;;;;39.13;8.38;;;7.60;99.90;;;;;;4963793;28;20616;-62
2023/12/15 09:41:32;;;;;;;34.22;7.18;;;7.70;99.90;;;;;;4985482;28;20074;-62
2023/12/15 09:43:57;;;;;;;42.10;7.90;;;7.70;99.90;;;;;;4977597;28;20042;-62
2023/12/15 09:46:24;;;;;;;44.15;8.45;;;7.90;99.90;;;;;;4977122;28;20046;-63
2023/12/15 09:48:50;;;;;;;31.15;8.10;;;7.90;99.90;;;;;;4961806;28;20050;-62
2023/12/15 09:51:25;;;;;;;34.05;6.97;;;8.00;99.90;;;;;;4982644;28;20108;-62
2023/12/15 09:53:52;;;;;;;40.80;7.22;;;8.10;99.90;;;;;;4958913;28;20063;-62
2023/12/15 09:56:18;;;;;;;37.65;7.65;;;8.10;99.90;;;;;;4963373;28;20045;-62
2023/12/15 09:58:44;;;;;;;51.53;10.98;;;8.10;99.90;;;;;;4977360;28;20034;-62
2023/12/15 10:01:11;;;;;;;50.38;9.13;;;8.30;99.90;;;;;;4976800;28;20160;-63
2023/12/15 10:03:37;;;;;;;39.50;9.00;;;8.20;99.90;;;;;;4979465;28;20050;-63
2023/12/15 10:06:03;;;;;;;41.10;9.43;;;8.30;99.90;;;;;;4981935;28;20705;-62
2023/12/15 10:08:45;;;;;;;38.42;12.07;;;8.30;99.90;;;;;;4974397;28;20092;-63
2023/12/15 10:11:11;;;;;;;44.00;12.90;;;8.30;99.90;;;;;;4961914;28;20045;-63
2023/12/15 10:13:41;;;;;;;43.53;13.02;;;8.30;99.90;;;;;;4968718;28;20077;-62
2023/12/15 10:16:08;;;;;;;45.53;13.75;;;8.40;99.90;;;;;;4992070;28;20050;-63
2023/12/15 10:18:34;;;;;;;48.25;9.32;;;8.40;99.90;;;;;;4972647;28;20090;-63
2023/12/15 10:21:00;;;;;;;43.95;9.90;;;8.50;99.90;;;;;;4975906;28;20117;-63
2023/12/15 10:23:30;;;;;;;32.75;7.25;;;8.50;99.90;;;;;;4974065;28;20046;-62
2023/12/15 10:25:58;;;;;;;38.70;8.38;;;8.50;99.90;;;;;;4962051;28;20046;-62
2023/12/15 10:28:25;;;;;;;42.58;8.07;;;8.60;99.90;;;;;;4979232;28;20041;-62
2023/12/15 10:30:51;;;;;;;32.78;7.85;;;8.60;99.90;;;;;;4977574;28;20781;-63
2023/12/15 10:33:21;;;;;;;50.05;9.18;;;8.60;99.90;;;;;;4975695;28;20691;-63
2023/12/15 10:35:47;;;;;;;44.42;8.50;;;8.70;99.90;;;;;;4977369;28;20081;-62
2023/12/15 10:38:14;;;;;;;43.10;9.40;;;8.70;99.90;;;;;;4982025;28;20429;-63
2023/12/15 10:40:42;;;;;;;38.55;7.15;;;8.70;99.90;;;;;;4973857;28;20035;-62
2023/12/15 10:43:10;;;;;;;45.40;9.35;;;8.80;99.90;;;;;;4974935;28;20053;-62
2023/12/15 10:45:36;;;;;;;39.13;7.65;;;8.90;99.90;;;;;;4980436;28;20053;-63
2023/12/15 10:48:03;;;;;;;37.33;8.68;;;8.90;99.90;;;;;;4974094;28;20066;-62
2023/12/15 10:50:30;;;;;;;35.80;7.78;;;8.90;99.90;;;;;;4983552;28;20050;-63
2023/12/15 10:52:57;;;;;;;43.05;8.20;;;9.00;99.90;;;;;;4984752;28;20536;-62
2023/12/15 10:55:25;;;;;;;37.55;8.23;;;9.00;99.90;;;;;;4978285;28;20489;-62
2023/12/15 10:57:51;;;;;;;45.15;8.75;;;9.00;99.90;;;;;;4983427;28;20047;-62
2023/12/15 11:00:18;;;;;;;37.97;7.75;;;9.00;99.90;;;;;;4961703;28;20459;-62
2023/12/15 11:02:48;;;;;;;39.65;8.45;;;9.10;99.90;;;;;;4975804;28;22049;-62
2023/12/15 11:05:16;;;;;;;42.33;8.13;;;9.20;99.90;;;;;;4972224;28;20053;-62
2023/12/15 11:07:42;;;;;;;42.00;8.52;;;9.10;99.90;;;;;;4975986;28;20042;-62
2023/12/15 11:10:09;;;;;;;40.03;7.93;;;9.20;99.90;;;;;;4977044;28;20057;-63
2023/12/15 11:12:37;;;;;;;47.17;8.80;;;9.20;99.90;;;;;;4977825;28;20129;-62
2023/12/15 11:15:06;;;;;;;35.13;8.23;;;9.20;99.90;;;;;;4959383;28;20045;-63
2023/12/15 11:17:33;;;;;;;42.13;8.93;;;9.30;99.90;;;;;;4976777;28;20521;-63
2023/12/15 11:20:11;;;;;;;47.83;9.30;;;9.30;99.90;;;;;;4975171;28;20448;-62
2023/12/15 11:23:08;;;;;;;47.40;9.05;;;9.30;99.90;;;;;;4977493;28;20409;-63
2023/12/15 11:25:51;;;;;;;45.85;8.82;;;9.30;99.90;;;;;;4972507;28;20078;-62
2023/12/15 11:28:18;;;;;;;40.45;8.20;;;9.40;99.90;;;;;;4989385;28;20050;-62
2023/12/15 11:30:45;;;;;;;40.45;7.75;;;9.40;99.90;;;;;;4980976;28;20702;-62
2023/12/15 11:33:26;;;;;;;46.10;8.25;;;9.40;99.90;;;;;;4976888;28;20490;-62
2023/12/15 11:36:01;;;;;;;49.78;9.30;;;9.50;99.90;;;;;;4977111;28;20038;-62
2023/12/15 11:38:37;;;;;;;37.85;7.68;;;9.60;99.90;;;;;;4962553;28;20672;-62
2023/12/15 11:41:04;;;;;;;51.08;9.55;;;9.60;99.90;;;;;;4978186;28;20047;-62
2023/12/15 11:43:36;;;;;;;43.50;9.02;;;9.70;99.90;;;;;;4964832;28;20141;-62
2023/12/15 11:46:05;;;;;;;41.40;8.23;;;9.80;99.90;;;;;;4979907;28;20109;-62
2023/12/15 11:48:34;;;;;;;37.20;7.90;;;9.90;99.90;;;;;;4980868;28;20121;-62
2023/12/15 11:51:01;;;;;;;39.00;8.85;;;10.00;99.90;;;;;;4980429;28;20081;-62
2023/12/15 11:53:28;;;;;;;40.08;7.90;;;10.10;99.90;;;;;;4980539;28;20030;-62
2023/12/15 11:55:55;;;;;;;43.30;8.00;;;10.10;99.90;;;;;;4983402;28;20066;-63
2023/12/15 11:58:22;;;;;;;42.50;8.05;;;10.10;99.90;;;;;;4967991;28;20450;-62
2023/12/15 12:00:48;;;;;;;38.33;8.35;;;10.20;99.90;;;;;;4985747;28;20050;-62
2023/12/15 12:03:15;;;;;;;37.83;7.28;;;10.20;99.90;;;;;;4986649;28;20696;-62
2023/12/15 12:05:42;;;;;;;42.80;7.85;;;10.10;99.90;;;;;;4984835;28;20136;-62
2023/12/15 12:08:09;;;;;;;34.00;7.65;;;10.10;99.90;;;;;;4983739;28;20105;-62
2023/12/15 12:10:40;;;;;;;41.28;7.38;;;10.10;99.90;;;;;;4984852;28;20070;-62
2023/12/15 12:13:07;;;;;;;38.03;7.15;;;10.10;99.90;;;;;;4979714;28;20038;-63
2023/12/15 12:15:47;;;;;;;33.15;7.00;;;10.10;99.90;;;;;;4985307;28;20357;-63
2023/12/15 12:18:12;;;;;;;34.95;6.65;;;10.10;99.90;;;;;;4985312;28;20069;-62
2023/12/15 12:20:41;;;;;;;32.03;8.55;;;10.10;99.90;;;;;;4986358;28;20479;-62
2023/12/15 12:23:07;;;;;;;33.67;6.57;;;10.10;99.90;;;;;;4983611;28;20070;-62
2023/12/15 12:25:32;;;;;;;31.40;6.80;;;10.10;99.90;;;;;;4985572;28;20073;-63
2023/12/15 12:27:58;;;;;;;33.22;6.88;;;10.10;99.90;;;;;;4979202;28;20051;-63
2023/12/15 12:30:24;;;;;;;30.95;6.22;;;10.10;99.90;;;;;;4953040;28;20042;-62
2023/12/15 12:32:49;;;;;;;46.45;7.28;;;10.10;99.90;;;;;;4981395;28;20116;-62
2023/12/15 12:35:15;;;;;;;33.13;7.30;;;10.10;99.90;;;;;;4983922;28;20041;-63
2023/12/15 12:37:41;;;;;;;32.40;6.43;;;10.10;99.90;;;;;;4966379;28;20035;-62
2023/12/15 12:40:08;;;;;;;28.48;6.07;;;10.10;99.90;;;;;;4969037;28;20038;-62